createdAt,value
2019-03-29T00:00:20.962Z,100666.23
2019-03-29T00:00:52.211Z,100663.21
2019-03-29T00:01:23.438Z,100664.11
2019-03-29T00:01:54.637Z,100659.34
2019-03-29T00:02:25.843Z,100661.14
2019-03-29T00:02:57.037Z,100666.87
2019-03-29T00:03:28.268Z,100664.02
2019-03-29T00:04:00.263Z,100668.50
2019-03-29T00:04:32.172Z,100664.41
2019-03-29T00:05:03.383Z,100665.45
2019-03-29T00:05:34.640Z,100667.66
2019-03-29T00:06:05.834Z,100664.23
2019-03-29T00:06:37.568Z,100671.59
2019-03-29T00:07:08.849Z,100658.26
2019-03-29T00:07:41.901Z,100664.73
2019-03-29T00:08:13.039Z,100656.97
2019-03-29T00:08:44.237Z,100659.55
2019-03-29T00:09:15.459Z,100664.28
2019-03-29T00:09:46.711Z,100665.98
2019-03-29T00:10:17.927Z,100672.44
2019-03-29T00:10:49.160Z,100670.25
2019-03-29T00:11:20.374Z,100668.16
2019-03-29T00:11:51.594Z,100661.30
2019-03-29T00:12:22.856Z,100663.89
2019-03-29T00:12:54.052Z,100662.14
2019-03-29T00:13:25.247Z,100668.56
2019-03-29T00:13:56.445Z,100665.07
2019-03-29T00:14:27.675Z,100667.97
2019-03-29T00:14:58.884Z,100673.02
2019-03-29T00:15:30.089Z,100676.72
2019-03-29T00:16:01.306Z,100676.19
2019-03-29T00:16:32.514Z,100679.55
2019-03-29T00:17:03.732Z,100669.11
2019-03-29T00:17:35.013Z,100669.44
2019-03-29T00:18:06.634Z,100666.72
2019-03-29T00:18:37.853Z,100670.11
2019-03-29T00:19:09.038Z,100665.65
2019-03-29T00:19:40.300Z,100666.92
2019-03-29T00:20:11.508Z,100669.79
2019-03-29T00:20:42.709Z,100670.09
2019-03-29T00:21:13.927Z,100667.94
2019-03-29T00:21:45.196Z,100673.41
2019-03-29T00:22:16.411Z,100672.52
2019-03-29T00:22:47.615Z,100671.19
2019-03-29T00:23:18.811Z,100671.17
2019-03-29T00:23:50.013Z,100674.59
2019-03-29T00:24:21.227Z,100665.55
2019-03-29T00:24:52.437Z,100671.94
2019-03-29T00:25:23.678Z,100666.33
2019-03-29T00:25:54.901Z,100667.13
2019-03-29T00:26:26.140Z,100665.76
2019-03-29T00:26:57.335Z,100670.02
2019-03-29T00:27:28.619Z,100676.83
2019-03-29T00:27:59.846Z,100670.34
2019-03-29T00:28:31.072Z,100666.83
2019-03-29T00:29:03.094Z,100672.38
2019-03-29T00:29:34.497Z,100668.96
2019-03-29T00:30:05.813Z,100667.59
2019-03-29T00:30:37.070Z,100671.45
2019-03-29T00:31:08.281Z,100667.48
2019-03-29T00:31:40.080Z,100668.77
2019-03-29T00:32:11.344Z,100671.73
2019-03-29T00:32:42.547Z,100674.28
2019-03-29T00:33:13.764Z,100672.54
2019-03-29T00:33:44.969Z,100669.51
2019-03-29T00:34:17.113Z,100670.80
2019-03-29T00:34:48.348Z,100673.38
2019-03-29T00:35:19.547Z,100673.83
2019-03-29T00:35:50.773Z,100673.38
2019-03-29T00:36:22.041Z,100673.77
2019-03-29T00:36:53.284Z,100679.38
2019-03-29T00:37:24.537Z,100675.05
2019-03-29T00:37:56.109Z,100670.34
2019-03-29T00:38:27.458Z,100679.02
2019-03-29T00:38:58.664Z,100672.38
2019-03-29T00:39:29.893Z,100667.44
2019-03-29T00:40:01.079Z,100669.72
2019-03-29T00:40:32.536Z,100667.63
2019-03-29T00:41:04.373Z,100662.97
2019-03-29T00:41:35.586Z,100669.02
2019-03-29T00:42:06.804Z,100661.72
2019-03-29T00:42:38.014Z,100671.19
2019-03-29T00:43:09.301Z,100669.91
2019-03-29T00:43:40.533Z,100663.43
2019-03-29T00:44:11.740Z,100677.20
2019-03-29T00:44:42.968Z,100669.00
2019-03-29T00:45:14.214Z,100669.42
2019-03-29T00:45:45.829Z,100674.59
2019-03-29T00:46:17.105Z,100668.97
2019-03-29T00:46:48.324Z,100670.66
2019-03-29T00:47:19.517Z,100671.03
2019-03-29T00:47:50.766Z,100672.33
2019-03-29T00:48:22.181Z,100670.63
2019-03-29T00:48:53.342Z,100667.17
2019-03-29T00:49:24.561Z,100672.78
2019-03-29T00:49:55.831Z,100669.36
2019-03-29T00:50:27.035Z,100664.26
2019-03-29T00:50:59.004Z,100664.30
2019-03-29T00:51:30.328Z,100665.66
2019-03-29T00:52:01.560Z,100661.81
2019-03-29T00:52:32.752Z,100667.03
2019-03-29T00:53:03.958Z,100661.02
2019-03-29T00:53:35.875Z,100669.17
2019-03-29T00:54:07.351Z,100669.16
2019-03-29T00:54:38.530Z,100668.26
2019-03-29T00:55:09.785Z,100668.70
2019-03-29T00:55:41.006Z,100664.73
2019-03-29T00:56:15.219Z,100670.28
2019-03-29T00:56:46.424Z,100665.88
2019-03-29T00:57:17.649Z,100670.56
2019-03-29T00:57:48.839Z,100668.38
2019-03-29T00:58:20.045Z,100669.24
2019-03-29T00:58:51.271Z,100668.73
2019-03-29T00:59:22.496Z,100672.19
2019-03-29T00:59:53.693Z,100673.42
2019-03-29T01:00:24.997Z,100681.59
2019-03-29T01:00:56.288Z,100672.88
2019-03-29T01:01:27.514Z,100673.28
2019-03-29T01:01:58.718Z,100679.28
2019-03-29T01:02:29.943Z,100677.93
2019-03-29T01:03:01.159Z,100679.19
2019-03-29T01:03:32.527Z,100675.25
2019-03-29T01:04:03.736Z,100681.60
2019-03-29T01:04:34.968Z,100675.86
2019-03-29T01:05:06.172Z,100677.93
2019-03-29T01:05:37.431Z,100677.41
2019-03-29T01:06:08.691Z,100669.62
2019-03-29T01:06:39.907Z,100675.55
2019-03-29T01:07:11.131Z,100672.92
2019-03-29T01:07:42.381Z,100668.53
2019-03-29T01:08:13.625Z,100672.75
2019-03-29T01:08:44.852Z,100668.84
2019-03-29T01:09:16.067Z,100672.64
2019-03-29T01:09:47.291Z,100676.47
2019-03-29T01:10:18.490Z,100672.96
2019-03-29T01:10:49.693Z,100672.48
2019-03-29T01:11:21.003Z,100675.91
2019-03-29T01:11:52.253Z,100674.12
2019-03-29T01:12:23.463Z,100672.27
2019-03-29T01:12:54.670Z,100672.59
2019-03-29T01:13:25.884Z,100673.00
2019-03-29T01:13:57.091Z,100672.10
2019-03-29T01:14:28.302Z,100674.20
2019-03-29T01:14:59.511Z,100673.27
2019-03-29T01:15:30.724Z,100668.97
2019-03-29T01:16:02.130Z,100668.13
2019-03-29T01:16:33.438Z,100668.13
2019-03-29T01:17:04.635Z,100666.75
2019-03-29T01:17:35.837Z,100672.73
2019-03-29T01:18:07.054Z,100666.30
2019-03-29T01:18:38.348Z,100659.81
2019-03-29T01:19:09.573Z,100670.95
2019-03-29T01:19:40.794Z,100665.30
2019-03-29T01:20:12.003Z,100663.94
2019-03-29T01:20:43.210Z,100669.05
2019-03-29T01:21:14.413Z,100669.02
2019-03-29T01:21:45.671Z,100663.87
2019-03-29T01:22:16.876Z,100662.94
2019-03-29T01:22:48.081Z,100658.04
2019-03-29T01:23:19.321Z,100661.86
2019-03-29T01:23:50.582Z,100663.14
2019-03-29T01:24:22.544Z,100655.77
2019-03-29T01:24:53.749Z,100658.11
2019-03-29T01:25:25.033Z,100657.16
2019-03-29T01:25:56.244Z,100651.09
2019-03-29T01:26:27.467Z,100660.53
2019-03-29T01:26:58.718Z,100659.25
2019-03-29T01:27:29.940Z,100657.94
2019-03-29T01:28:01.170Z,100658.69
2019-03-29T01:28:33.661Z,100657.74
2019-03-29T01:29:04.961Z,100658.98
2019-03-29T01:29:36.185Z,100659.78
2019-03-29T01:30:07.713Z,100659.33
2019-03-29T01:30:38.951Z,100656.73
2019-03-29T01:31:10.186Z,100656.67
2019-03-29T01:31:41.351Z,100656.64
2019-03-29T01:32:12.635Z,100655.34
2019-03-29T01:32:43.867Z,100655.77
2019-03-29T01:33:15.075Z,100653.14
2019-03-29T01:33:46.311Z,100655.66
2019-03-29T01:34:17.526Z,100653.91
2019-03-29T01:34:48.738Z,100656.99
2019-03-29T01:35:19.942Z,100650.23
2019-03-29T01:35:51.265Z,100653.86
2019-03-29T01:36:22.473Z,100659.48
2019-03-29T01:36:53.878Z,100659.52
2019-03-29T01:37:25.436Z,100662.98
2019-03-29T01:37:56.710Z,100659.47
2019-03-29T01:38:27.995Z,100656.89
2019-03-29T01:38:59.212Z,100657.48
2019-03-29T01:39:30.453Z,100659.62
2019-03-29T01:40:01.672Z,100660.19
2019-03-29T01:40:32.995Z,100659.38
2019-03-29T01:41:04.204Z,100659.75
2019-03-29T01:41:35.418Z,100661.47
2019-03-29T01:42:06.625Z,100654.20
2019-03-29T01:42:37.832Z,100658.81
2019-03-29T01:43:09.363Z,100663.16
2019-03-29T01:43:41.304Z,100661.88
2019-03-29T01:44:12.509Z,100665.79
2019-03-29T01:44:43.756Z,100661.55
2019-03-29T01:45:14.954Z,100661.63
2019-03-29T01:45:46.269Z,100659.98
2019-03-29T01:46:17.498Z,100656.98
2019-03-29T01:46:48.703Z,100660.01
2019-03-29T01:47:19.926Z,100658.29
2019-03-29T01:47:51.179Z,100656.27
2019-03-29T01:48:23.113Z,100659.88
2019-03-29T01:48:54.547Z,100653.84
2019-03-29T01:49:25.762Z,100657.45
2019-03-29T01:49:56.985Z,100660.86
2019-03-29T01:50:28.211Z,100654.90
2019-03-29T01:50:59.434Z,100651.02
2019-03-29T01:51:30.663Z,100655.25
2019-03-29T01:52:01.924Z,100654.67
2019-03-29T01:52:33.114Z,100655.46
2019-03-29T01:53:04.330Z,100650.64
2019-03-29T01:53:35.583Z,100653.22
2019-03-29T01:54:06.790Z,100654.03
2019-03-29T01:54:38.001Z,100653.91
2019-03-29T01:55:09.212Z,100648.14
2019-03-29T01:55:40.409Z,100648.39
2019-03-29T01:56:11.622Z,100648.41
2019-03-29T01:56:42.834Z,100654.45
2019-03-29T01:57:14.048Z,100653.53
2019-03-29T01:57:45.315Z,100650.94
2019-03-29T01:58:16.521Z,100650.78
2019-03-29T01:58:47.797Z,100654.08
2019-03-29T01:59:18.992Z,100653.59
2019-03-29T01:59:50.202Z,100657.45
2019-03-29T02:00:21.473Z,100655.69
2019-03-29T02:00:52.669Z,100650.42
2019-03-29T02:01:23.892Z,100655.52
2019-03-29T02:01:55.285Z,100649.89
2019-03-29T02:02:26.495Z,100653.31
2019-03-29T02:02:57.859Z,100654.15
2019-03-29T02:03:29.101Z,100654.60
2019-03-29T02:04:00.368Z,100655.38
2019-03-29T02:04:31.562Z,100653.64
2019-03-29T02:05:02.784Z,100648.86
2019-03-29T02:05:34.011Z,100647.16
2019-03-29T02:06:05.221Z,100646.61
2019-03-29T02:06:36.452Z,100650.41
2019-03-29T02:07:07.680Z,100648.67
2019-03-29T02:07:38.958Z,100646.53
2019-03-29T02:08:10.183Z,100646.04
2019-03-29T02:08:41.399Z,100647.70
2019-03-29T02:09:12.652Z,100651.87
2019-03-29T02:09:43.859Z,100647.87
2019-03-29T02:10:15.060Z,100643.92
2019-03-29T02:10:46.267Z,100646.44
2019-03-29T02:11:17.481Z,100644.17
2019-03-29T02:11:48.756Z,100650.12
2019-03-29T02:12:19.957Z,100653.48
2019-03-29T02:12:51.177Z,100645.66
2019-03-29T02:13:22.401Z,100654.19
2019-03-29T02:13:53.603Z,100650.30
2019-03-29T02:14:24.826Z,100651.65
2019-03-29T02:14:56.035Z,100652.91
2019-03-29T02:15:27.258Z,100650.30
2019-03-29T02:15:58.477Z,100650.30
2019-03-29T02:16:29.933Z,100648.99
2019-03-29T02:17:01.231Z,100650.67
2019-03-29T02:17:32.432Z,100648.99
2019-03-29T02:18:03.706Z,100654.95
2019-03-29T02:18:34.912Z,100645.47
2019-03-29T02:19:06.279Z,100646.81
2019-03-29T02:19:37.555Z,100640.82
2019-03-29T02:20:08.762Z,100645.50
2019-03-29T02:20:39.968Z,100647.27
2019-03-29T02:21:11.207Z,100644.70
2019-03-29T02:21:43.055Z,100645.53
2019-03-29T02:22:14.543Z,100644.19
2019-03-29T02:22:45.824Z,100647.61
2019-03-29T02:23:17.026Z,100643.27
2019-03-29T02:23:48.223Z,100649.66
2019-03-29T02:24:19.443Z,100645.38
2019-03-29T02:24:50.685Z,100646.69
2019-03-29T02:25:21.985Z,100644.09
2019-03-29T02:25:53.197Z,100653.09
2019-03-29T02:26:24.451Z,100649.64
2019-03-29T02:26:55.659Z,100646.58
2019-03-29T02:27:27.190Z,100645.35
2019-03-29T02:27:58.608Z,100643.63
2019-03-29T02:28:29.825Z,100640.67
2019-03-29T02:29:01.038Z,100644.06
2019-03-29T02:29:32.258Z,100646.14
2019-03-29T02:30:04.578Z,100645.23
2019-03-29T02:30:37.395Z,100643.12
2019-03-29T02:31:08.607Z,100645.23
2019-03-29T02:31:42.134Z,100645.69
2019-03-29T02:32:12.767Z,100645.35
2019-03-29T02:32:43.974Z,100640.64
2019-03-29T02:33:15.242Z,100649.20
2019-03-29T02:33:47.675Z,100639.78
2019-03-29T02:34:19.413Z,100637.20
2019-03-29T02:34:50.631Z,100644.06
2019-03-29T02:35:21.848Z,100645.78
2019-03-29T02:35:53.061Z,100641.03
2019-03-29T02:36:24.297Z,100645.38
2019-03-29T02:36:55.582Z,100648.41
2019-03-29T02:37:26.761Z,100641.52
2019-03-29T02:37:57.986Z,100642.81
2019-03-29T02:38:29.230Z,100641.95
2019-03-29T02:39:00.466Z,100642.84
2019-03-29T02:39:31.743Z,100640.23
2019-03-29T02:40:02.978Z,100639.88
2019-03-29T02:40:34.199Z,100635.12
2019-03-29T02:41:05.411Z,100637.33
2019-03-29T02:41:36.685Z,100640.42
2019-03-29T02:42:07.914Z,100640.54
2019-03-29T02:42:39.123Z,100642.43
2019-03-29T02:43:11.107Z,100641.33
2019-03-29T02:43:42.424Z,100637.92
2019-03-29T02:44:13.630Z,100642.70
2019-03-29T02:44:44.833Z,100643.50
2019-03-29T02:45:16.027Z,100637.44
2019-03-29T02:45:47.236Z,100638.62
2019-03-29T02:46:18.491Z,100638.20
2019-03-29T02:46:49.849Z,100635.98
2019-03-29T02:47:21.683Z,100644.52
2019-03-29T02:47:53.304Z,100644.05
2019-03-29T02:48:24.514Z,100639.74
2019-03-29T02:48:55.713Z,100650.48
2019-03-29T02:49:26.933Z,100639.28
2019-03-29T02:49:58.170Z,100645.68
2019-03-29T02:50:29.398Z,100642.19
2019-03-29T02:51:00.681Z,100644.27
2019-03-29T02:51:32.911Z,100642.98
2019-03-29T02:52:04.370Z,100645.99
2019-03-29T02:52:35.583Z,100637.33
2019-03-29T02:53:06.843Z,100644.64
2019-03-29T02:53:38.046Z,100641.67
2019-03-29T02:54:09.270Z,100641.67
2019-03-29T02:54:40.522Z,100636.94
2019-03-29T02:55:11.757Z,100640.36
2019-03-29T02:55:42.957Z,100643.78
2019-03-29T02:56:14.239Z,100640.39
2019-03-29T02:56:45.489Z,100642.98
2019-03-29T02:57:16.713Z,100637.02
2019-03-29T02:57:47.904Z,100643.05
2019-03-29T02:58:19.197Z,100640.02
2019-03-29T02:58:50.427Z,100649.88
2019-03-29T02:59:21.661Z,100644.27
2019-03-29T02:59:52.904Z,100640.42
2019-03-29T03:00:24.130Z,100643.42
2019-03-29T03:00:55.372Z,100642.93
2019-03-29T03:01:26.538Z,100644.64
2019-03-29T03:01:57.753Z,100648.88
2019-03-29T03:02:28.961Z,100643.27
2019-03-29T03:03:00.160Z,100648.05
2019-03-29T03:03:31.438Z,100647.58
2019-03-29T03:04:02.655Z,100647.13
2019-03-29T03:04:33.842Z,100647.98
2019-03-29T03:05:05.085Z,100642.81
2019-03-29T03:05:36.295Z,100644.64
2019-03-29T03:06:07.499Z,100646.05
2019-03-29T03:06:38.714Z,100650.00
2019-03-29T03:07:09.932Z,100644.03
2019-03-29T03:07:41.142Z,100645.31
2019-03-29T03:08:12.343Z,100647.00
2019-03-29T03:08:43.583Z,100648.28
2019-03-29T03:09:15.029Z,100649.56
2019-03-29T03:09:46.291Z,100646.05
2019-03-29T03:10:17.527Z,100648.19
2019-03-29T03:10:48.732Z,100647.73
2019-03-29T03:11:19.950Z,100635.70
2019-03-29T03:11:51.162Z,100644.34
2019-03-29T03:12:22.378Z,100640.08
2019-03-29T03:12:53.587Z,100639.69
2019-03-29T03:13:24.828Z,100640.48
2019-03-29T03:13:56.050Z,100644.73
2019-03-29T03:14:27.265Z,100638.73
2019-03-29T03:15:00.513Z,100642.59
2019-03-29T03:15:31.739Z,100638.28
2019-03-29T03:16:02.955Z,100638.64
2019-03-29T03:16:34.182Z,100639.44
2019-03-29T03:17:05.424Z,100640.67
2019-03-29T03:17:36.614Z,100636.35
2019-03-29T03:18:07.827Z,100638.49
2019-03-29T03:18:39.041Z,100641.98
2019-03-29T03:19:10.243Z,100638.09
2019-03-29T03:19:41.512Z,100644.55
2019-03-29T03:20:15.509Z,100641.13
2019-03-29T03:20:45.669Z,100641.98
2019-03-29T03:21:16.905Z,100641.52
2019-03-29T03:21:48.098Z,100643.23
2019-03-29T03:22:19.312Z,100642.75
2019-03-29T03:22:50.573Z,100639.26
2019-03-29T03:23:21.861Z,100647.89
2019-03-29T03:23:53.093Z,100644.06
2019-03-29T03:24:24.357Z,100643.21
2019-03-29T03:24:55.626Z,100645.69
2019-03-29T03:25:26.849Z,100652.11
2019-03-29T03:25:58.080Z,100651.19
2019-03-29T03:26:29.304Z,100651.13
2019-03-29T03:27:00.527Z,100650.61
2019-03-29T03:27:31.768Z,100651.89
2019-03-29T03:28:03.003Z,100653.55
2019-03-29T03:28:34.237Z,100658.69
2019-03-29T03:29:05.452Z,100655.26
2019-03-29T03:29:36.701Z,100648.38
2019-03-29T03:30:07.920Z,100646.20
2019-03-29T03:30:39.181Z,100649.20
2019-03-29T03:31:10.442Z,100653.08
2019-03-29T03:31:41.662Z,100649.33
2019-03-29T03:32:12.901Z,100648.87
2019-03-29T03:32:44.160Z,100650.55
2019-03-29T03:33:15.403Z,100653.55
2019-03-29T03:33:46.595Z,100648.41
2019-03-29T03:34:17.792Z,100654.86
2019-03-29T03:34:49.038Z,100650.97
2019-03-29T03:35:20.253Z,100651.83
2019-03-29T03:35:51.481Z,100659.14
2019-03-29T03:36:22.705Z,100652.69
2019-03-29T03:36:53.895Z,100652.27
2019-03-29T03:37:25.103Z,100656.11
2019-03-29T03:37:56.305Z,100655.20
2019-03-29T03:38:27.539Z,100656.05
2019-03-29T03:38:58.743Z,100654.34
2019-03-29T03:39:32.243Z,100654.00
2019-03-29T03:40:02.939Z,100653.18
2019-03-29T03:40:34.143Z,100652.78
2019-03-29T03:41:05.347Z,100654.13
2019-03-29T03:41:36.553Z,100642.14
2019-03-29T03:42:07.761Z,100651.13
2019-03-29T03:42:38.974Z,100652.88
2019-03-29T03:43:10.186Z,100654.16
2019-03-29T03:43:41.415Z,100653.23
2019-03-29T03:44:12.626Z,100644.67
2019-03-29T03:44:43.846Z,100646.36
2019-03-29T03:45:15.135Z,100651.09
2019-03-29T03:45:46.320Z,100648.47
2019-03-29T03:46:17.521Z,100644.19
2019-03-29T03:46:48.750Z,100648.92
2019-03-29T03:47:19.953Z,100645.47
2019-03-29T03:47:51.175Z,100650.16
2019-03-29T03:48:22.400Z,100642.44
2019-03-29T03:48:53.661Z,100645.38
2019-03-29T03:49:24.914Z,100641.46
2019-03-29T03:50:00.518Z,100649.17
2019-03-29T03:50:29.178Z,100642.28
2019-03-29T03:51:00.390Z,100642.65
2019-03-29T03:51:31.608Z,100646.05
2019-03-29T03:52:02.829Z,100644.23
2019-03-29T03:52:34.069Z,100644.17
2019-03-29T03:53:05.302Z,100644.17
2019-03-29T03:53:36.505Z,100645.46
2019-03-29T03:54:07.720Z,100640.19
2019-03-29T03:54:38.938Z,100641.88
2019-03-29T03:55:10.154Z,100646.13
2019-03-29T03:55:41.397Z,100645.23
2019-03-29T03:56:12.596Z,100643.91
2019-03-29T03:56:43.817Z,100643.06
2019-03-29T03:57:15.019Z,100646.02
2019-03-29T03:57:46.287Z,100646.88
2019-03-29T03:58:17.497Z,100641.74
2019-03-29T03:58:48.708Z,100648.23
2019-03-29T03:59:19.946Z,100646.16
2019-03-29T03:59:51.185Z,100645.30
2019-03-29T04:00:22.404Z,100650.50
2019-03-29T04:00:53.638Z,100644.53
2019-03-29T04:01:24.841Z,100651.39
2019-03-29T04:01:56.062Z,100649.67
2019-03-29T04:02:27.320Z,100649.31
2019-03-29T04:02:58.537Z,100649.21
2019-03-29T04:03:29.793Z,100649.21
2019-03-29T04:04:01.005Z,100649.21
2019-03-29T04:04:32.214Z,100653.06
2019-03-29T04:05:03.433Z,100648.75
2019-03-29T04:05:34.746Z,100653.89
2019-03-29T04:06:05.954Z,100651.32
2019-03-29T04:06:37.170Z,100652.61
2019-03-29T04:07:08.373Z,100653.95
2019-03-29T04:07:39.586Z,100656.92
2019-03-29T04:08:10.799Z,100654.78
2019-03-29T04:08:42.094Z,100655.60
2019-03-29T04:09:13.318Z,100652.21
2019-03-29T04:09:50.140Z,100653.06
2019-03-29T04:10:17.548Z,100655.63
2019-03-29T04:10:48.930Z,100660.91
2019-03-29T04:11:20.189Z,100654.05
2019-03-29T04:11:51.402Z,100658.37
2019-03-29T04:12:22.621Z,100662.65
2019-03-29T04:12:53.828Z,100663.50
2019-03-29T04:13:25.037Z,100661.36
2019-03-29T04:13:56.249Z,100660.91
2019-03-29T04:14:27.448Z,100664.33
2019-03-29T04:14:58.678Z,100663.50
2019-03-29T04:15:29.916Z,100662.68
2019-03-29T04:16:01.153Z,100666.53
2019-03-29T04:16:32.361Z,100669.53
2019-03-29T04:17:03.565Z,100669.92
2019-03-29T04:17:34.800Z,100670.39
2019-03-29T04:18:06.000Z,100664.45
2019-03-29T04:18:37.231Z,100665.41
2019-03-29T04:19:08.492Z,100671.90
2019-03-29T04:19:39.742Z,100669.78
2019-03-29T04:20:10.949Z,100665.11
2019-03-29T04:20:42.193Z,100671.59
2019-03-29T04:21:13.444Z,100669.88
2019-03-29T04:21:44.660Z,100672.52
2019-03-29T04:22:15.867Z,100674.75
2019-03-29T04:22:47.127Z,100673.95
2019-03-29T04:23:18.448Z,100674.48
2019-03-29T04:23:49.681Z,100673.84
2019-03-29T04:24:20.897Z,100671.17
2019-03-29T04:24:52.111Z,100674.19
2019-03-29T04:25:23.380Z,100468.80
2019-03-29T04:25:54.603Z,100672.05
2019-03-29T04:26:25.806Z,100670.76
2019-03-29T04:26:57.011Z,100671.28
2019-03-29T04:27:28.218Z,100662.84
2019-03-29T04:27:59.450Z,100667.33
2019-03-29T04:28:30.660Z,100665.81
2019-03-29T04:29:04.982Z,100673.34
2019-03-29T04:29:34.903Z,100673.59
2019-03-29T04:30:06.244Z,100676.00
2019-03-29T04:30:37.468Z,100675.35
2019-03-29T04:31:08.744Z,100669.98
2019-03-29T04:31:39.956Z,100675.08
2019-03-29T04:32:11.177Z,100673.48
2019-03-29T04:32:42.530Z,100525.88
2019-03-29T04:33:13.745Z,100679.34
2019-03-29T04:33:44.982Z,100682.07
2019-03-29T04:34:16.214Z,100676.69
2019-03-29T04:34:47.443Z,100678.13
2019-03-29T04:35:18.716Z,100683.48
2019-03-29T04:35:49.910Z,100682.34
2019-03-29T04:36:21.177Z,100681.35
2019-03-29T04:36:52.401Z,100679.86
2019-03-29T04:37:23.616Z,100680.92
2019-03-29T04:37:54.852Z,100678.98
2019-03-29T04:38:26.062Z,100681.28
2019-03-29T04:38:57.276Z,100687.05
2019-03-29T04:39:28.496Z,100680.67
2019-03-29T04:40:07.762Z,100682.46
2019-03-29T04:40:32.662Z,100680.34
2019-03-29T04:41:03.837Z,100680.08
2019-03-29T04:41:35.125Z,100680.61
2019-03-29T04:42:06.376Z,100679.89
2019-03-29T04:42:37.582Z,100676.16
2019-03-29T04:43:08.808Z,100676.72
2019-03-29T04:43:40.017Z,100674.66
2019-03-29T04:44:11.239Z,100669.52
2019-03-29T04:44:42.447Z,100675.22
2019-03-29T04:45:13.659Z,100670.03
2019-03-29T04:45:44.868Z,100667.00
2019-03-29T04:46:16.055Z,100669.66
2019-03-29T04:46:47.305Z,100675.35
2019-03-29T04:47:18.565Z,100672.77
2019-03-29T04:47:49.842Z,100675.82
2019-03-29T04:48:21.055Z,100673.75
2019-03-29T04:48:52.264Z,100668.46
2019-03-29T04:49:23.529Z,100672.41
2019-03-29T04:49:54.778Z,100671.27
2019-03-29T04:50:25.967Z,100670.56
2019-03-29T04:50:57.178Z,100669.41
2019-03-29T04:51:28.388Z,100664.34
2019-03-29T04:51:59.592Z,100664.86
2019-03-29T04:52:30.852Z,100671.39
2019-03-29T04:53:02.085Z,100669.80
2019-03-29T04:53:33.301Z,100664.69
2019-03-29T04:54:04.509Z,100663.94
2019-03-29T04:54:35.759Z,100664.44
2019-03-29T04:55:06.988Z,100661.50
2019-03-29T04:55:38.192Z,100671.05
2019-03-29T04:56:09.408Z,100666.77
2019-03-29T04:56:40.618Z,100668.50
2019-03-29T04:57:11.880Z,100674.48
2019-03-29T04:57:43.149Z,100672.51
2019-03-29T04:58:14.333Z,100672.55
2019-03-29T04:58:45.570Z,100674.30
2019-03-29T04:59:16.775Z,100667.02
2019-03-29T04:59:48.000Z,100675.48
2019-03-29T05:00:19.206Z,100679.31
2019-03-29T05:00:50.432Z,100678.33
2019-03-29T05:01:21.649Z,100681.34
2019-03-29T05:01:52.864Z,100676.58
2019-03-29T05:02:24.076Z,100676.72
2019-03-29T05:02:55.326Z,100680.27
2019-03-29T05:03:26.579Z,100670.81
2019-03-29T05:03:57.790Z,100677.69
2019-03-29T05:04:29.002Z,100678.91
2019-03-29T05:05:00.415Z,100679.31
2019-03-29T05:05:31.606Z,100675.92
2019-03-29T05:06:02.818Z,100676.34
2019-03-29T05:06:34.012Z,100677.69
2019-03-29T05:07:05.235Z,100676.03
2019-03-29T05:07:37.156Z,100678.72
2019-03-29T05:08:08.554Z,100681.41
2019-03-29T05:08:39.764Z,100680.96
2019-03-29T05:09:11.011Z,100682.70
2019-03-29T05:09:42.212Z,100682.30
2019-03-29T05:10:21.259Z,100683.23
2019-03-29T05:10:46.393Z,100688.45
2019-03-29T05:11:17.592Z,100687.13
2019-03-29T05:11:48.797Z,100687.97
2019-03-29T05:12:20.026Z,100689.31
2019-03-29T05:12:51.251Z,100684.13
2019-03-29T05:13:22.499Z,100681.77
2019-03-29T05:13:53.711Z,100686.84
2019-03-29T05:14:24.929Z,100690.67
2019-03-29T05:14:56.144Z,100691.17
2019-03-29T05:15:27.358Z,100691.58
2019-03-29T05:15:58.601Z,100685.16
2019-03-29T05:16:29.814Z,100695.66
2019-03-29T05:17:01.023Z,100688.37
2019-03-29T05:17:32.280Z,100691.05
2019-03-29T05:18:03.482Z,100685.87
2019-03-29T05:18:34.681Z,100684.98
2019-03-29T05:19:05.884Z,100695.38
2019-03-29T05:19:37.125Z,100692.83
2019-03-29T05:20:08.313Z,100691.58
2019-03-29T05:20:39.578Z,100691.61
2019-03-29T05:21:10.805Z,100693.72
2019-03-29T05:21:42.056Z,100686.88
2019-03-29T05:22:13.277Z,100682.98
2019-03-29T05:22:44.471Z,100685.13
2019-03-29T05:23:15.721Z,100679.06
2019-03-29T05:23:46.968Z,100681.66
2019-03-29T05:24:18.167Z,100684.66
2019-03-29T05:24:49.397Z,100690.77
2019-03-29T05:25:20.661Z,100690.34
2019-03-29T05:25:51.856Z,100694.69
2019-03-29T05:26:25.456Z,100694.69
2019-03-29T05:26:56.101Z,100697.61
2019-03-29T05:27:27.272Z,100698.78
2019-03-29T05:27:58.476Z,100688.37
2019-03-29T05:28:29.716Z,100690.08
2019-03-29T05:29:00.937Z,100687.92
2019-03-29T05:29:32.265Z,100685.65
2019-03-29T05:30:03.436Z,100689.53
2019-03-29T05:30:34.721Z,100690.02
2019-03-29T05:31:05.928Z,100694.36
2019-03-29T05:31:37.149Z,100693.55
2019-03-29T05:32:08.498Z,100694.94
2019-03-29T05:32:39.741Z,100694.61
2019-03-29T05:33:10.953Z,100692.05
2019-03-29T05:33:42.208Z,100693.38
2019-03-29T05:34:13.415Z,100696.02
2019-03-29T05:34:44.622Z,100699.05
2019-03-29T05:35:15.827Z,100698.57
2019-03-29T05:35:47.053Z,100695.09
2019-03-29T05:36:18.281Z,100692.53
2019-03-29T05:36:49.490Z,100694.20
2019-03-29T05:37:20.725Z,100699.31
2019-03-29T05:37:52.026Z,100698.86
2019-03-29T05:38:23.232Z,100702.67
2019-03-29T05:38:54.460Z,100698.34
2019-03-29T05:39:25.651Z,100700.08
2019-03-29T05:39:56.846Z,100701.33
2019-03-29T05:40:34.989Z,100696.98
2019-03-29T05:41:01.081Z,100696.19
2019-03-29T05:41:32.294Z,100694.49
2019-03-29T05:42:03.510Z,100697.13
2019-03-29T05:42:34.845Z,100692.39
2019-03-29T05:43:06.032Z,100689.35
2019-03-29T05:43:37.294Z,100693.23
2019-03-29T05:44:08.567Z,100695.83
2019-03-29T05:44:40.924Z,100691.05
2019-03-29T05:45:12.260Z,100694.00
2019-03-29T05:45:43.502Z,100694.89
2019-03-29T05:46:14.711Z,100691.85
2019-03-29T05:46:45.920Z,100698.78
2019-03-29T05:47:17.158Z,100701.28
2019-03-29T05:47:48.427Z,100696.99
2019-03-29T05:48:19.666Z,100700.48
2019-03-29T05:48:50.916Z,100699.67
2019-03-29T05:49:22.126Z,100698.37
2019-03-29T05:49:53.581Z,100698.05
2019-03-29T05:50:24.771Z,100700.69
2019-03-29T05:50:55.974Z,100697.27
2019-03-29T05:51:27.190Z,100703.34
2019-03-29T05:51:58.416Z,100701.64
2019-03-29T05:52:29.634Z,100705.05
2019-03-29T05:53:00.919Z,100701.53
2019-03-29T05:53:32.129Z,100700.72
2019-03-29T05:54:03.342Z,100705.08
2019-03-29T05:54:34.546Z,100695.60
2019-03-29T05:55:05.781Z,100705.08
2019-03-29T05:55:37.113Z,100696.89
2019-03-29T05:56:08.316Z,100697.78
2019-03-29T05:56:39.529Z,100702.05
2019-03-29T05:57:10.733Z,100698.57